Airfield :
LOGIN :

Register | Disclaimer

   EN    FR    IT 

 










Legend :    VFR   Marginal VFR   IFR   Intensive IFR   Very Intensive IFR
Visi :
Ceiling :
>= 8 km
>= 3000ft
5 to 8 km
1000 to 3000 ft
1500m to 5 km
500 to 1000 ft
800 to 1500m
200 to 500 ft
< 800m
< 200 ft
Symbols :   Thunderstorms  Fog  Heavy snow  Heavy precipitations  Wind > 20 kt
SIGMETs :     Misc.  Thunderstorms  Icing  Turbulence  Mountain Waves  Volcanic Ashes






- Airport Elevation : 291 ft
- IATA code : ORY


LFPO - Paris-Orly

CURRENT METAR :
  • 172030Z 19009KT 160V220 9999 BKN009 15/13 Q1010 TEMPO BKN008

EXPIRED METARs :
  • 172000Z 19008KT 9999 BKN008 15/13 Q1010 TEMPO 4000 SHRA BKN012 BKN020TCU
  • 171930Z 18008KT 9999 BKN010 BKN082 15/13 Q1010 TEMPO 4000 SHRA BKN012 BKN020TCU
  • 171900Z 18008KT 9999 FEW040 BKN082 15/13 Q1010 TEMPO 4000 SHRA BKN012 BKN020TCU
  • 171830Z 19009KT 9999 FEW015 BKN070 15/13 Q1010 TEMPO 4000 SHRA BKN012 BKN020TCU
  • 171800Z 20007KT 9999 FEW015 BKN083 15/13 Q1010 TEMPO 4000 SHRA BKN012 BKN020TCU

TAF AMD TAF LFPO
Valid from the 17 at 20:00 until the 19 at 00:00 UTC


172000Z 1720/1824 20008KT 9999 BKN020
TEMPO 1720/1721 20016G26KT 4000 SHRA BKN008 BKN020TCU
TEMPO 1804/1807 24020G35KT 3000 SHRA BKN012 BKN020CB
TEMPO 1807/1815 22015G25KT
ATIS : +33 1 49 75 65 80



MET'MAP, your aeronautical weather chart ! - Copyright ORBIFLY December 2007 - Disclaimer

ORBIFLY MET'MAP TEAM :

Programming & Development : Alexandra Zaïnal
Concept & Development : Baudouin d'Aumeries
Co-Development & Prog : Marc-Olivier Méhu
Technical & hardware support : Manuel Goepfert

Contact : metmap@orbifly.com




SOURCES & CREDITS :

   NOAA